createdAt,value
2017-10-15T00:00:56.797Z,0
2017-10-15T00:01:57.380Z,0
2017-10-15T00:02:57.955Z,0
2017-10-15T00:03:58.529Z,0
2017-10-15T00:04:59.103Z,0
2017-10-15T00:05:59.688Z,0
2017-10-15T00:07:00.263Z,0
2017-10-15T00:08:00.835Z,0
2017-10-15T00:09:01.407Z,0
2017-10-15T00:10:01.980Z,0
2017-10-15T00:11:02.553Z,0
2017-10-15T00:12:03.127Z,0
2017-10-15T00:13:03.702Z,0
2017-10-15T00:14:04.277Z,0
2017-10-15T00:15:04.862Z,0
2017-10-15T00:16:05.435Z,0
2017-10-15T00:17:06.011Z,0
2017-10-15T00:18:06.583Z,0
2017-10-15T00:19:07.158Z,0
2017-10-15T00:20:07.731Z,0
2017-10-15T00:21:08.307Z,0
2017-10-15T00:22:08.880Z,0
2017-10-15T00:23:09.455Z,0
2017-10-15T00:24:10.035Z,0
2017-10-15T00:25:10.611Z,0
2017-10-15T00:26:11.187Z,0
2017-10-15T00:27:11.755Z,0
2017-10-15T00:28:12.327Z,0
2017-10-15T00:29:12.902Z,0
2017-10-15T00:30:13.475Z,0
2017-10-15T00:31:14.047Z,0
2017-10-15T00:32:14.620Z,0
2017-10-15T00:33:15.193Z,0
2017-10-15T00:34:15.764Z,0
2017-10-15T00:35:16.337Z,0
2017-10-15T00:36:16.910Z,0
2017-10-15T00:37:17.483Z,0
2017-10-15T00:38:18.056Z,0
2017-10-15T00:39:18.632Z,0
2017-10-15T00:40:19.204Z,0
2017-10-15T00:41:19.779Z,0
2017-10-15T00:42:20.353Z,0
2017-10-15T00:43:20.926Z,0
2017-10-15T00:44:21.500Z,0
2017-10-15T00:45:22.072Z,0
2017-10-15T00:46:22.644Z,0
2017-10-15T00:47:23.216Z,0
2017-10-15T00:48:23.795Z,0
2017-10-15T00:49:24.363Z,0
2017-10-15T00:50:24.937Z,0
2017-10-15T00:51:25.521Z,0
2017-10-15T00:52:26.094Z,0
2017-10-15T00:53:26.680Z,0
2017-10-15T00:54:27.253Z,0
2017-10-15T00:55:27.826Z,0
2017-10-15T00:56:28.398Z,0
2017-10-15T00:57:28.972Z,0
2017-10-15T00:58:29.545Z,0
2017-10-15T00:59:30.118Z,0
2017-10-15T01:00:30.690Z,0
2017-10-15T01:01:31.264Z,0
2017-10-15T01:02:31.840Z,0
2017-10-15T01:03:32.414Z,0
2017-10-15T01:04:32.987Z,0
2017-10-15T01:05:33.559Z,0
2017-10-15T01:06:34.134Z,0
2017-10-15T01:07:34.707Z,0
2017-10-15T01:08:35.280Z,0
2017-10-15T01:09:35.854Z,0
2017-10-15T01:10:36.427Z,0
2017-10-15T01:11:37.001Z,0
2017-10-15T01:12:37.574Z,0
2017-10-15T01:13:38.149Z,0
2017-10-15T01:14:38.722Z,0
2017-10-15T01:15:39.296Z,0
2017-10-15T01:16:39.869Z,0
2017-10-15T01:17:40.442Z,0
2017-10-15T01:18:41.015Z,0
2017-10-15T01:19:41.586Z,0
2017-10-15T01:20:42.159Z,0
2017-10-15T01:21:42.732Z,0
2017-10-15T01:22:43.306Z,0
2017-10-15T01:23:43.880Z,0
2017-10-15T01:24:44.462Z,0
2017-10-15T01:25:45.034Z,0
2017-10-15T01:26:45.606Z,0
2017-10-15T01:27:46.180Z,0
2017-10-15T01:28:46.752Z,0
2017-10-15T01:29:47.324Z,0
2017-10-15T01:30:47.897Z,0
2017-10-15T01:31:48.472Z,0
2017-10-15T01:32:49.045Z,0
2017-10-15T01:33:49.622Z,0
2017-10-15T01:34:50.201Z,0
2017-10-15T01:35:50.774Z,0
2017-10-15T01:36:51.358Z,0
2017-10-15T01:37:51.931Z,0
2017-10-15T01:38:52.502Z,0
2017-10-15T01:39:53.076Z,0
2017-10-15T01:40:53.650Z,0
2017-10-15T01:41:54.219Z,0
2017-10-15T01:42:54.792Z,0
2017-10-15T01:43:55.367Z,0
2017-10-15T01:44:55.938Z,0
2017-10-15T01:45:56.513Z,0
2017-10-15T01:46:57.085Z,0
2017-10-15T01:47:57.661Z,0
2017-10-15T01:48:58.233Z,0
2017-10-15T01:49:58.807Z,0
2017-10-15T01:50:59.380Z,0
2017-10-15T01:51:59.952Z,0
2017-10-15T01:53:00.524Z,0
2017-10-15T01:54:01.097Z,0
2017-10-15T01:55:01.669Z,0
2017-10-15T01:56:02.241Z,0
2017-10-15T01:57:02.814Z,0
2017-10-15T01:58:03.388Z,0
2017-10-15T01:59:03.963Z,0
2017-10-15T02:00:04.537Z,0
2017-10-15T02:01:05.111Z,0
2017-10-15T02:02:05.683Z,0
2017-10-15T02:03:06.258Z,0
2017-10-15T02:04:06.828Z,0
2017-10-15T02:05:07.401Z,0
2017-10-15T02:06:07.973Z,0
2017-10-15T02:07:08.544Z,0
2017-10-15T02:08:09.118Z,0
2017-10-15T02:09:09.691Z,0
2017-10-15T02:10:10.273Z,0
2017-10-15T02:11:10.845Z,0
2017-10-15T02:12:11.438Z,0
2017-10-15T02:13:12.014Z,0
2017-10-15T02:14:12.584Z,0
2017-10-15T02:15:13.156Z,0
2017-10-15T02:16:13.728Z,0
2017-10-15T02:17:14.302Z,0
2017-10-15T02:18:14.890Z,0
2017-10-15T02:19:15.473Z,0
2017-10-15T02:20:16.053Z,0
2017-10-15T02:21:16.637Z,0
2017-10-15T02:22:17.211Z,0
2017-10-15T02:23:17.785Z,0
2017-10-15T02:24:18.358Z,0
2017-10-15T02:25:18.931Z,0
2017-10-15T02:26:19.504Z,0
2017-10-15T02:27:20.075Z,0
2017-10-15T02:28:20.648Z,0
2017-10-15T02:29:21.220Z,0
2017-10-15T02:30:21.805Z,0
2017-10-15T02:31:22.379Z,0
2017-10-15T02:32:22.950Z,0
2017-10-15T02:33:23.524Z,0
2017-10-15T02:34:24.106Z,0
2017-10-15T02:35:24.679Z,0
2017-10-15T02:36:25.253Z,0
2017-10-15T02:37:25.825Z,0
2017-10-15T02:38:26.398Z,0
2017-10-15T02:39:26.970Z,0
2017-10-15T02:40:27.543Z,0
2017-10-15T02:41:28.115Z,0
2017-10-15T02:42:28.687Z,0
2017-10-15T02:43:29.259Z,0
2017-10-15T02:44:29.843Z,0
2017-10-15T02:45:30.416Z,0
2017-10-15T02:46:30.988Z,0
2017-10-15T02:47:31.560Z,0
2017-10-15T02:48:32.145Z,0
2017-10-15T02:49:32.718Z,0
2017-10-15T02:50:33.300Z,0
2017-10-15T02:51:33.874Z,0
2017-10-15T02:52:34.448Z,0
2017-10-15T02:53:35.021Z,0
2017-10-15T02:54:35.592Z,0
2017-10-15T02:55:36.167Z,0
2017-10-15T02:56:36.739Z,0
2017-10-15T02:57:37.312Z,0
2017-10-15T02:58:37.883Z,0
2017-10-15T02:59:38.455Z,0
2017-10-15T03:00:39.027Z,0
2017-10-15T03:01:39.601Z,0
2017-10-15T03:02:40.173Z,0
2017-10-15T03:03:40.745Z,0
2017-10-15T03:04:41.330Z,0
2017-10-15T03:05:41.903Z,0
2017-10-15T03:06:42.475Z,0
2017-10-15T03:07:43.047Z,0
2017-10-15T03:08:43.621Z,0
2017-10-15T03:09:44.197Z,0
2017-10-15T03:10:44.773Z,0
2017-10-15T03:11:45.344Z,0
2017-10-15T03:12:45.927Z,0
2017-10-15T03:13:46.500Z,0
2017-10-15T03:14:47.075Z,0
2017-10-15T03:15:47.647Z,0
2017-10-15T03:16:48.219Z,0
2017-10-15T03:17:48.793Z,0
2017-10-15T03:18:49.364Z,0
2017-10-15T03:19:49.937Z,0
2017-10-15T03:20:50.509Z,0
2017-10-15T03:21:51.080Z,0
2017-10-15T03:22:51.653Z,0
2017-10-15T03:23:52.223Z,0
2017-10-15T03:24:52.798Z,0
2017-10-15T03:25:53.372Z,0
2017-10-15T03:26:53.945Z,0
2017-10-15T03:27:54.518Z,0
2017-10-15T03:28:55.090Z,0
2017-10-15T03:29:55.662Z,0
2017-10-15T03:30:56.243Z,0
2017-10-15T03:31:56.807Z,0
2017-10-15T03:32:57.379Z,0
2017-10-15T03:33:57.953Z,0
2017-10-15T03:34:58.523Z,0
2017-10-15T03:35:59.093Z,0
2017-10-15T03:36:59.664Z,0
2017-10-15T03:38:00.237Z,0
2017-10-15T03:39:00.810Z,0
2017-10-15T03:40:01.390Z,0
2017-10-15T03:41:01.964Z,0
2017-10-15T03:42:02.543Z,0
2017-10-15T03:43:03.108Z,0
2017-10-15T03:44:03.681Z,0
2017-10-15T03:45:04.252Z,0
2017-10-15T03:46:04.823Z,0
2017-10-15T03:47:05.394Z,0
2017-10-15T03:48:05.968Z,0
2017-10-15T03:49:06.541Z,0
2017-10-15T03:50:07.116Z,0
2017-10-15T03:51:07.688Z,0
2017-10-15T03:52:08.269Z,0
2017-10-15T03:53:08.844Z,0
2017-10-15T03:54:09.418Z,0
2017-10-15T03:55:09.991Z,0
2017-10-15T03:56:10.563Z,0
2017-10-15T03:57:11.135Z,0
2017-10-15T03:58:11.707Z,0
2017-10-15T03:59:12.279Z,0
2017-10-15T04:00:12.849Z,0
2017-10-15T04:01:13.421Z,0
2017-10-15T04:02:13.992Z,0
2017-10-15T04:03:14.564Z,0
2017-10-15T04:04:15.137Z,0
2017-10-15T04:05:15.759Z,0
2017-10-15T04:06:16.335Z,0
2017-10-15T04:07:16.905Z,0
2017-10-15T04:08:17.478Z,0
2017-10-15T04:09:18.049Z,0
2017-10-15T04:10:18.621Z,0
2017-10-15T04:11:19.194Z,0
2017-10-15T04:12:19.767Z,0
2017-10-15T04:13:20.341Z,0
2017-10-15T04:14:20.913Z,0
2017-10-15T04:15:21.487Z,0
2017-10-15T04:16:22.063Z,0
2017-10-15T04:17:22.632Z,0
2017-10-15T04:18:23.204Z,0
2017-10-15T04:19:23.776Z,0
2017-10-15T04:20:24.347Z,0
2017-10-15T04:21:24.919Z,0
2017-10-15T04:22:25.491Z,0
2017-10-15T04:23:26.062Z,0
2017-10-15T04:24:26.633Z,0
2017-10-15T04:25:27.216Z,0
2017-10-15T04:26:27.787Z,0
2017-10-15T04:27:28.359Z,0
2017-10-15T04:28:28.931Z,0
2017-10-15T04:29:29.515Z,0
2017-10-15T04:30:30.087Z,0
2017-10-15T04:31:30.662Z,0
2017-10-15T04:32:31.234Z,0
2017-10-15T04:33:31.818Z,0
2017-10-15T04:34:32.393Z,0
2017-10-15T04:35:32.964Z,0
2017-10-15T04:36:33.547Z,0
2017-10-15T04:37:34.121Z,0
2017-10-15T04:38:34.693Z,0
2017-10-15T04:39:35.267Z,0
2017-10-15T04:40:35.840Z,0
2017-10-15T04:41:36.411Z,0
2017-10-15T04:42:36.983Z,0
2017-10-15T04:43:37.559Z,0
2017-10-15T04:44:38.127Z,0
2017-10-15T04:45:38.698Z,0
2017-10-15T04:46:39.271Z,0
2017-10-15T04:47:39.844Z,0
2017-10-15T04:48:40.417Z,0
2017-10-15T04:49:40.989Z,0
2017-10-15T04:50:41.565Z,0
2017-10-15T04:51:42.149Z,0
2017-10-15T04:52:42.707Z,0
2017-10-15T04:53:43.282Z,0
2017-10-15T04:54:43.851Z,0
2017-10-15T04:55:44.423Z,0
2017-10-15T04:56:45.008Z,0
2017-10-15T04:57:45.580Z,0
2017-10-15T04:58:46.152Z,0
2017-10-15T04:59:46.725Z,0
2017-10-15T05:00:47.297Z,0
2017-10-15T05:01:47.869Z,0
2017-10-15T05:02:48.439Z,0
2017-10-15T05:03:49.012Z,0
2017-10-15T05:04:49.584Z,0
2017-10-15T05:05:50.157Z,0
2017-10-15T05:06:50.730Z,0
2017-10-15T05:07:51.302Z,0
2017-10-15T05:08:51.877Z,0
2017-10-15T05:09:52.462Z,0
2017-10-15T05:10:53.034Z,0
2017-10-15T05:11:53.608Z,0
2017-10-15T05:12:54.180Z,0
2017-10-15T05:13:54.753Z,0
2017-10-15T05:14:55.325Z,0
2017-10-15T05:15:55.896Z,0
2017-10-15T05:16:56.468Z,0
2017-10-15T05:17:57.047Z,0
2017-10-15T05:18:57.611Z,0
2017-10-15T05:19:58.183Z,0
2017-10-15T05:20:58.753Z,0
2017-10-15T05:21:59.327Z,0
2017-10-15T05:22:59.906Z,0
2017-10-15T05:24:00.472Z,0
2017-10-15T05:25:01.048Z,0
2017-10-15T05:26:01.618Z,0
2017-10-15T05:27:02.192Z,0
2017-10-15T05:28:02.764Z,0
2017-10-15T05:29:03.336Z,0
2017-10-15T05:30:03.906Z,0
2017-10-15T05:31:04.478Z,0
2017-10-15T05:32:05.062Z,0
2017-10-15T05:33:05.635Z,0
2017-10-15T05:34:06.206Z,0
2017-10-15T05:35:06.779Z,0
2017-10-15T05:36:07.354Z,4
2017-10-15T05:37:07.923Z,0
2017-10-15T05:38:08.494Z,0
2017-10-15T05:39:09.065Z,4
2017-10-15T05:40:09.637Z,0
2017-10-15T05:41:10.210Z,4
2017-10-15T05:42:10.786Z,0
2017-10-15T05:43:11.356Z,4
2017-10-15T05:44:11.930Z,4
2017-10-15T05:45:12.504Z,4
2017-10-15T05:46:13.075Z,4
2017-10-15T05:47:13.648Z,4
2017-10-15T05:48:14.220Z,8
2017-10-15T05:49:14.793Z,8
2017-10-15T05:50:15.366Z,12
2017-10-15T05:51:15.940Z,12
2017-10-15T05:52:16.515Z,16
2017-10-15T05:53:17.088Z,16
2017-10-15T05:54:17.663Z,16
2017-10-15T05:55:18.235Z,20
2017-10-15T05:56:18.821Z,20
2017-10-15T05:57:19.396Z,24
2017-10-15T05:58:19.970Z,28
2017-10-15T05:59:20.542Z,28
2017-10-15T06:00:21.116Z,32
2017-10-15T06:01:21.689Z,36
2017-10-15T06:02:22.262Z,36
2017-10-15T06:03:22.836Z,40
2017-10-15T06:04:23.412Z,44
2017-10-15T06:05:23.985Z,48
2017-10-15T06:06:24.559Z,52
2017-10-15T06:07:25.132Z,52
2017-10-15T06:08:25.706Z,56
2017-10-15T06:09:26.280Z,60
2017-10-15T06:10:26.855Z,64
2017-10-15T06:11:27.430Z,68
2017-10-15T06:12:28.006Z,72
2017-10-15T06:13:28.587Z,76
2017-10-15T06:14:29.162Z,80
2017-10-15T06:15:29.740Z,84
2017-10-15T06:16:30.309Z,84
2017-10-15T06:17:30.884Z,88
2017-10-15T06:18:31.468Z,92
2017-10-15T06:19:32.043Z,96
2017-10-15T06:20:32.618Z,100
2017-10-15T06:21:33.194Z,104
2017-10-15T06:22:33.766Z,104
2017-10-15T06:23:34.341Z,108
2017-10-15T06:24:34.925Z,116
2017-10-15T06:25:35.499Z,116
2017-10-15T06:26:36.074Z,120
2017-10-15T06:27:36.650Z,124
2017-10-15T06:28:37.233Z,128
2017-10-15T06:29:37.799Z,132
2017-10-15T06:30:38.374Z,132
2017-10-15T06:31:38.953Z,136
2017-10-15T06:32:39.527Z,140
2017-10-15T06:33:40.114Z,144
2017-10-15T06:34:40.690Z,144
2017-10-15T06:35:41.267Z,152
2017-10-15T06:36:41.840Z,152
2017-10-15T06:37:42.414Z,156
2017-10-15T06:38:42.992Z,160
2017-10-15T06:39:43.566Z,160
2017-10-15T06:40:44.142Z,164
2017-10-15T06:41:44.715Z,168
2017-10-15T06:42:45.293Z,172
2017-10-15T06:43:45.880Z,172
2017-10-15T06:44:46.452Z,176
2017-10-15T06:45:47.026Z,180
2017-10-15T06:46:47.603Z,180
2017-10-15T06:47:48.179Z,184
2017-10-15T06:48:48.754Z,184
2017-10-15T06:49:49.329Z,184
2017-10-15T06:50:49.903Z,188
2017-10-15T06:51:50.489Z,188
2017-10-15T06:52:51.079Z,192
2017-10-15T06:53:51.664Z,196
2017-10-15T06:54:52.240Z,200
2017-10-15T06:55:52.818Z,204
2017-10-15T06:56:53.395Z,204
2017-10-15T06:57:53.969Z,204
2017-10-15T06:58:54.546Z,208
2017-10-15T06:59:55.121Z,212
2017-10-15T07:00:55.704Z,212
2017-10-15T07:01:56.274Z,216
2017-10-15T07:02:56.853Z,212
2017-10-15T07:03:57.430Z,216
2017-10-15T07:04:58.006Z,220
2017-10-15T07:05:58.581Z,220
2017-10-15T07:06:59.158Z,220
2017-10-15T07:07:59.735Z,224
2017-10-15T07:09:00.313Z,224
2017-10-15T07:10:00.899Z,228
2017-10-15T07:11:01.473Z,232
2017-10-15T07:12:02.048Z,232
2017-10-15T07:13:02.624Z,236
2017-10-15T07:14:03.201Z,236
2017-10-15T07:15:03.785Z,240
2017-10-15T07:16:04.356Z,244
2017-10-15T07:17:04.943Z,240
2017-10-15T07:18:05.532Z,248
2017-10-15T07:19:06.098Z,244
2017-10-15T07:20:06.676Z,248
2017-10-15T07:21:07.253Z,252
2017-10-15T07:22:07.828Z,252
2017-10-15T07:23:08.404Z,256
2017-10-15T07:24:08.992Z,260
2017-10-15T07:25:09.568Z,260
2017-10-15T07:26:10.145Z,260
2017-10-15T07:27:10.723Z,260
2017-10-15T07:28:11.300Z,260
2017-10-15T07:29:11.874Z,264
2017-10-15T07:30:12.453Z,268
2017-10-15T07:31:13.036Z,268
2017-10-15T07:32:13.606Z,268
2017-10-15T07:33:14.185Z,268
2017-10-15T07:34:14.761Z,272
2017-10-15T07:35:15.339Z,272
2017-10-15T07:36:15.923Z,272
2017-10-15T07:37:16.492Z,276
2017-10-15T07:38:17.070Z,276
2017-10-15T07:39:17.648Z,280
2017-10-15T07:40:18.224Z,280
2017-10-15T07:41:18.800Z,284
2017-10-15T07:42:19.377Z,284
2017-10-15T07:43:19.957Z,288
2017-10-15T07:44:20.531Z,288
2017-10-15T07:45:21.108Z,292
2017-10-15T07:46:21.687Z,292
2017-10-15T07:47:22.262Z,292
2017-10-15T07:48:22.851Z,292
2017-10-15T07:49:23.416Z,296
2017-10-15T07:50:23.995Z,296
2017-10-15T07:51:24.573Z,300
2017-10-15T07:52:25.149Z,300
2017-10-15T07:53:25.726Z,300
2017-10-15T07:54:26.301Z,304
2017-10-15T07:55:26.879Z,304
2017-10-15T07:56:27.464Z,308
2017-10-15T07:57:28.035Z,308
2017-10-15T07:58:28.612Z,308
2017-10-15T07:59:29.200Z,312
2017-10-15T08:00:29.776Z,312
2017-10-15T08:01:30.354Z,316
2017-10-15T08:02:30.932Z,316
2017-10-15T08:03:31.507Z,316
2017-10-15T08:04:32.085Z,316
2017-10-15T08:05:32.665Z,320
2017-10-15T08:06:33.251Z,320
2017-10-15T08:07:33.833Z,324
2017-10-15T08:08:34.410Z,324
2017-10-15T08:09:34.983Z,328
2017-10-15T08:10:35.562Z,324
2017-10-15T08:11:36.140Z,328
2017-10-15T08:12:36.718Z,332
2017-10-15T08:13:37.293Z,328
2017-10-15T08:14:37.871Z,332
2017-10-15T08:15:38.448Z,332
2017-10-15T08:16:39.027Z,336
2017-10-15T08:17:39.604Z,336
2017-10-15T08:18:40.180Z,336
2017-10-15T08:19:40.759Z,336
2017-10-15T08:20:41.338Z,340
2017-10-15T08:21:41.915Z,340
2017-10-15T08:22:42.493Z,340
2017-10-15T08:23:43.071Z,340
2017-10-15T08:24:43.650Z,344
2017-10-15T08:25:44.226Z,344
2017-10-15T08:26:44.812Z,344
2017-10-15T08:27:45.382Z,344
2017-10-15T08:28:45.961Z,348
2017-10-15T08:29:46.537Z,348
2017-10-15T08:30:47.114Z,348
2017-10-15T08:31:47.691Z,352
2017-10-15T08:32:48.270Z,352
2017-10-15T08:33:48.847Z,352
2017-10-15T08:34:49.423Z,352
2017-10-15T08:35:50.001Z,356
2017-10-15T08:36:50.578Z,356
2017-10-15T08:37:51.156Z,360
2017-10-15T08:38:51.733Z,360
2017-10-15T08:39:52.310Z,360
2017-10-15T08:40:52.888Z,360
2017-10-15T08:41:53.467Z,360
2017-10-15T08:42:54.046Z,360
2017-10-15T08:43:54.623Z,364
2017-10-15T08:44:55.201Z,364
2017-10-15T08:45:55.779Z,364
2017-10-15T08:46:56.357Z,368
2017-10-15T08:47:56.933Z,368
2017-10-15T08:48:57.513Z,368
2017-10-15T08:49:58.090Z,368
2017-10-15T08:50:58.668Z,368
2017-10-15T08:51:59.249Z,372
2017-10-15T08:52:59.820Z,372
2017-10-15T08:54:00.398Z,376
2017-10-15T08:55:00.975Z,372
2017-10-15T08:56:01.553Z,376
2017-10-15T08:57:02.139Z,372
2017-10-15T08:58:02.711Z,376
2017-10-15T08:59:03.288Z,376
2017-10-15T09:00:03.866Z,376
2017-10-15T09:01:04.443Z,376
2017-10-15T09:02:05.020Z,380
2017-10-15T09:03:05.601Z,384
2017-10-15T09:04:06.180Z,380
2017-10-15T09:05:06.755Z,384
2017-10-15T09:06:07.333Z,384
2017-10-15T09:07:07.911Z,384
2017-10-15T09:08:08.490Z,388
2017-10-15T09:09:09.067Z,380
2017-10-15T09:10:09.644Z,380
2017-10-15T09:11:10.222Z,384
2017-10-15T09:12:10.805Z,384
2017-10-15T09:13:11.379Z,384
2017-10-15T09:14:11.968Z,384
2017-10-15T09:15:12.547Z,384
2017-10-15T09:16:13.125Z,388
2017-10-15T09:17:13.702Z,388
2017-10-15T09:18:14.283Z,388
2017-10-15T09:19:14.863Z,388
2017-10-15T09:20:15.450Z,388
2017-10-15T09:21:16.029Z,392
2017-10-15T09:22:16.607Z,392
2017-10-15T09:23:17.185Z,392
2017-10-15T09:24:17.765Z,396
2017-10-15T09:25:18.343Z,396
2017-10-15T09:26:18.922Z,396
2017-10-15T09:27:19.511Z,396
2017-10-15T09:28:20.089Z,400
2017-10-15T09:29:20.674Z,400
2017-10-15T09:30:21.244Z,400
2017-10-15T09:31:21.824Z,400
2017-10-15T09:32:22.404Z,400
2017-10-15T09:33:22.995Z,404
2017-10-15T09:34:23.578Z,404
2017-10-15T09:35:24.153Z,404
2017-10-15T09:36:24.743Z,404
2017-10-15T09:37:25.325Z,404
2017-10-15T09:38:25.902Z,408
2017-10-15T09:39:26.482Z,404
2017-10-15T09:40:27.059Z,408
2017-10-15T09:41:27.639Z,408
2017-10-15T09:42:28.224Z,408
2017-10-15T09:43:28.798Z,408
2017-10-15T09:44:29.378Z,408
2017-10-15T09:45:29.969Z,412
2017-10-15T09:46:30.547Z,412
2017-10-15T09:47:31.137Z,412
2017-10-15T09:48:31.718Z,416
2017-10-15T09:49:32.296Z,412
2017-10-15T09:50:32.875Z,416
2017-10-15T09:51:33.456Z,416
2017-10-15T09:52:34.035Z,420
2017-10-15T09:53:34.614Z,420
2017-10-15T09:54:35.192Z,416
2017-10-15T09:55:35.771Z,420
2017-10-15T09:56:36.351Z,420
2017-10-15T09:57:36.931Z,420
2017-10-15T09:58:37.509Z,420
2017-10-15T09:59:38.094Z,424
2017-10-15T10:00:38.670Z,424
2017-10-15T10:01:39.249Z,424
2017-10-15T10:02:39.827Z,424
2017-10-15T10:03:40.406Z,428
2017-10-15T10:04:40.986Z,424
2017-10-15T10:05:41.565Z,428
2017-10-15T10:06:42.144Z,432
2017-10-15T10:07:42.722Z,428
2017-10-15T10:08:43.303Z,428
2017-10-15T10:09:43.884Z,432
2017-10-15T10:10:44.462Z,432
2017-10-15T10:11:45.042Z,436
2017-10-15T10:12:45.623Z,436
2017-10-15T10:13:46.253Z,436
2017-10-15T10:14:46.833Z,436
2017-10-15T10:15:47.413Z,436
2017-10-15T10:16:47.994Z,440
2017-10-15T10:17:48.571Z,436
2017-10-15T10:18:49.152Z,440
2017-10-15T10:19:49.746Z,448
2017-10-15T10:20:50.323Z,440
2017-10-15T10:21:50.905Z,444
2017-10-15T10:22:51.483Z,444
2017-10-15T10:23:52.067Z,440
2017-10-15T10:24:52.659Z,440
2017-10-15T10:25:53.245Z,444
2017-10-15T10:26:53.823Z,444
2017-10-15T10:27:54.404Z,448
2017-10-15T10:28:54.984Z,448
2017-10-15T10:29:55.563Z,448
2017-10-15T10:30:56.144Z,448
2017-10-15T10:31:56.723Z,448
2017-10-15T10:32:57.302Z,448
2017-10-15T10:33:57.881Z,448
2017-10-15T10:34:58.463Z,452
2017-10-15T10:35:59.045Z,448
2017-10-15T10:36:59.624Z,452
2017-10-15T10:38:00.202Z,452
2017-10-15T10:39:00.784Z,452
2017-10-15T10:40:01.364Z,452
2017-10-15T10:41:01.945Z,452
2017-10-15T10:42:02.524Z,456
2017-10-15T10:43:03.103Z,456
2017-10-15T10:44:03.685Z,456
2017-10-15T10:45:04.264Z,456
2017-10-15T10:46:04.842Z,456
2017-10-15T10:47:05.422Z,456
2017-10-15T10:48:06.003Z,456
2017-10-15T10:49:06.583Z,460
2017-10-15T10:50:07.163Z,460
2017-10-15T10:51:07.744Z,460
2017-10-15T10:52:08.323Z,460
2017-10-15T10:53:08.911Z,460
2017-10-15T10:54:09.496Z,460
2017-10-15T10:55:10.078Z,460
2017-10-15T10:56:10.658Z,460
2017-10-15T10:57:11.238Z,460
2017-10-15T10:58:11.821Z,460
2017-10-15T10:59:12.401Z,460
2017-10-15T11:00:12.982Z,464
2017-10-15T11:01:13.563Z,464
2017-10-15T11:02:14.144Z,460
2017-10-15T11:03:14.724Z,460
2017-10-15T11:04:15.305Z,464
2017-10-15T11:05:15.885Z,464
2017-10-15T11:06:16.473Z,464
2017-10-15T11:07:17.047Z,464
2017-10-15T11:08:17.628Z,464
2017-10-15T11:09:18.208Z,464
2017-10-15T11:10:18.790Z,464
2017-10-15T11:11:19.372Z,464
2017-10-15T11:12:19.951Z,468
2017-10-15T11:13:20.531Z,468
2017-10-15T11:14:21.114Z,472
2017-10-15T11:15:21.704Z,472
2017-10-15T11:16:22.299Z,472
2017-10-15T11:17:22.876Z,472
2017-10-15T11:18:23.461Z,476
2017-10-15T11:19:24.039Z,476
2017-10-15T11:20:24.620Z,476
2017-10-15T11:21:25.209Z,476
2017-10-15T11:22:25.791Z,480
2017-10-15T11:23:26.372Z,480
2017-10-15T11:24:26.952Z,476
2017-10-15T11:25:27.531Z,480
2017-10-15T11:26:28.114Z,480
2017-10-15T11:27:28.694Z,480
2017-10-15T11:28:29.274Z,484
2017-10-15T11:29:29.857Z,484
2017-10-15T11:30:30.449Z,484
2017-10-15T11:31:31.030Z,484
2017-10-15T11:32:31.621Z,488
2017-10-15T11:33:32.213Z,484
2017-10-15T11:34:32.793Z,488
2017-10-15T11:35:33.372Z,488
2017-10-15T11:36:33.960Z,492
2017-10-15T11:37:34.535Z,492
2017-10-15T11:38:35.126Z,492
2017-10-15T11:39:35.708Z,492
2017-10-15T11:40:36.289Z,496
2017-10-15T11:41:36.875Z,496
2017-10-15T11:42:37.460Z,496
2017-10-15T11:43:38.040Z,496
2017-10-15T11:44:38.622Z,496
2017-10-15T11:45:39.204Z,500
2017-10-15T11:46:39.783Z,500
2017-10-15T11:47:40.364Z,500
2017-10-15T11:48:40.947Z,500
2017-10-15T11:49:41.527Z,500
2017-10-15T11:50:42.119Z,500
2017-10-15T11:51:42.701Z,508
2017-10-15T11:52:43.282Z,508
2017-10-15T11:53:43.862Z,508
2017-10-15T11:54:44.446Z,508
2017-10-15T11:55:45.039Z,508
2017-10-15T11:56:45.619Z,512
2017-10-15T11:57:46.203Z,512
2017-10-15T11:58:46.795Z,512
2017-10-15T11:59:47.376Z,512
2017-10-15T12:00:47.955Z,512
2017-10-15T12:01:48.534Z,516
2017-10-15T12:02:49.124Z,512
2017-10-15T12:03:49.706Z,516
2017-10-15T12:04:50.287Z,516
2017-10-15T12:05:50.868Z,516
2017-10-15T12:06:51.451Z,520
2017-10-15T12:07:52.031Z,520
2017-10-15T12:08:52.610Z,520
2017-10-15T12:09:53.192Z,520
2017-10-15T12:10:53.774Z,524
2017-10-15T12:11:54.355Z,520
2017-10-15T12:12:54.935Z,528
2017-10-15T12:13:55.517Z,528
2017-10-15T12:14:56.099Z,528
2017-10-15T12:15:56.680Z,528
2017-10-15T12:16:57.265Z,528
2017-10-15T12:17:57.854Z,532
2017-10-15T12:18:58.434Z,532
2017-10-15T12:19:59.017Z,532
2017-10-15T12:20:59.597Z,536
2017-10-15T12:22:00.177Z,540
2017-10-15T12:23:00.792Z,540
2017-10-15T12:24:01.362Z,540
2017-10-15T12:25:01.955Z,540
2017-10-15T12:26:02.535Z,544
2017-10-15T12:27:03.117Z,576
2017-10-15T12:28:03.698Z,548
2017-10-15T12:29:04.279Z,544
2017-10-15T12:30:04.861Z,548
2017-10-15T12:31:05.453Z,552
2017-10-15T12:32:06.035Z,552
2017-10-15T12:33:06.617Z,552
2017-10-15T12:34:07.201Z,552
2017-10-15T12:35:07.784Z,556
2017-10-15T12:36:08.360Z,556
2017-10-15T12:37:08.942Z,556
2017-10-15T12:38:09.523Z,556
2017-10-15T12:39:10.103Z,556
2017-10-15T12:40:10.685Z,556
2017-10-15T12:41:11.265Z,560
2017-10-15T12:42:11.847Z,560
2017-10-15T12:43:12.428Z,564
2017-10-15T12:44:13.011Z,564
2017-10-15T12:45:13.591Z,564
2017-10-15T12:46:14.184Z,564
2017-10-15T12:47:14.765Z,564
2017-10-15T12:48:15.348Z,564
2017-10-15T12:49:15.928Z,568
2017-10-15T12:50:16.522Z,564
2017-10-15T12:51:17.113Z,564
2017-10-15T12:52:17.696Z,564
2017-10-15T12:53:18.284Z,568
2017-10-15T12:54:18.859Z,568
2017-10-15T12:55:19.441Z,564
2017-10-15T12:56:20.025Z,568
2017-10-15T12:57:20.607Z,568
2017-10-15T12:58:21.186Z,572
2017-10-15T12:59:21.769Z,568
2017-10-15T13:00:22.351Z,572
2017-10-15T13:01:22.942Z,572
2017-10-15T13:02:23.524Z,572
2017-10-15T13:03:24.117Z,576
2017-10-15T13:04:24.710Z,576
2017-10-15T13:05:25.290Z,572
2017-10-15T13:06:25.873Z,576
2017-10-15T13:07:26.455Z,576
2017-10-15T13:08:27.035Z,580
2017-10-15T13:09:27.628Z,576
2017-10-15T13:10:28.209Z,580
2017-10-15T13:11:28.792Z,580
2017-10-15T13:12:29.374Z,580
2017-10-15T13:13:29.956Z,584
2017-10-15T13:14:30.538Z,580
2017-10-15T13:15:31.118Z,584
2017-10-15T13:16:31.701Z,584
2017-10-15T13:17:32.284Z,584
2017-10-15T13:18:32.866Z,584
2017-10-15T13:19:33.446Z,584
2017-10-15T13:20:34.028Z,588
2017-10-15T13:21:34.618Z,592
2017-10-15T13:22:35.200Z,596
2017-10-15T13:23:35.781Z,596
2017-10-15T13:24:36.365Z,596
2017-10-15T13:25:36.945Z,596
2017-10-15T13:26:37.525Z,596
2017-10-15T13:27:38.108Z,600
2017-10-15T13:28:38.690Z,604
2017-10-15T13:29:39.291Z,604
2017-10-15T13:30:39.878Z,604
2017-10-15T13:31:40.461Z,604
2017-10-15T13:32:41.042Z,608
2017-10-15T13:33:41.622Z,608
2017-10-15T13:34:42.204Z,608
2017-10-15T13:35:42.791Z,608
2017-10-15T13:36:43.369Z,608
2017-10-15T13:37:43.949Z,612
2017-10-15T13:38:44.532Z,612
2017-10-15T13:39:45.114Z,616
2017-10-15T13:40:45.747Z,616
2017-10-15T13:41:46.327Z,616
2017-10-15T13:42:46.911Z,620
2017-10-15T13:43:47.492Z,620
2017-10-15T13:44:48.076Z,624
2017-10-15T13:45:48.657Z,624
2017-10-15T13:46:49.242Z,624
2017-10-15T13:47:49.823Z,624
2017-10-15T13:48:50.403Z,636
2017-10-15T13:49:50.983Z,640
2017-10-15T13:50:51.566Z,640
2017-10-15T13:51:52.147Z,640
2017-10-15T13:52:52.730Z,640
2017-10-15T13:53:53.311Z,640
2017-10-15T13:54:53.894Z,640
2017-10-15T13:55:54.476Z,644
2017-10-15T13:56:55.058Z,644
2017-10-15T13:57:55.638Z,648
2017-10-15T13:58:56.222Z,648
2017-10-15T13:59:56.804Z,652
2017-10-15T14:00:57.386Z,652
2017-10-15T14:01:57.967Z,652
2017-10-15T14:02:58.550Z,652
2017-10-15T14:03:59.140Z,660
2017-10-15T14:04:59.721Z,644
2017-10-15T14:06:00.304Z,640
2017-10-15T14:07:00.887Z,640
2017-10-15T14:08:01.468Z,636
2017-10-15T14:09:02.050Z,636
2017-10-15T14:10:02.645Z,640
2017-10-15T14:11:03.224Z,640
2017-10-15T14:12:03.807Z,636
2017-10-15T14:13:04.390Z,636
2017-10-15T14:14:04.971Z,636
2017-10-15T14:15:05.552Z,636
2017-10-15T14:16:06.135Z,644
2017-10-15T14:17:06.717Z,644
2017-10-15T14:18:07.300Z,644
2017-10-15T14:19:07.880Z,644